• Join FlightAware (Why Join?)
  • Login
  • US Flag 
Rudolph Flight #1: Arrived! 
02:44PM EST


 

Airport Tracker/Info


-or-


 

Live Flight TrackerFlight Track Log ✈ PDT4108 ✈ 23-Aug-2014 ✈ KPHL - KEWR

Flight Track Log - Related Links

Times and Time Zones

All times are in EDT time to prevent confusion due to time zone crossing. See the PDT4108 flight status page for this flight to view local times or setup timezone preferences in your user account.

Time Position Orientation Groundspeed Altitude Reporting Facility
EDT Latitude Longitude Course Direction KTS MPH feet Rate Location/Type
04:05PM 39.8833 -75.2000 90° East 118 136 700  Level Philadelphia TRACON
04:06PM 39.8833 -75.1667 90° East 122 140 2,000 1,200 Climbing Philadelphia TRACON
04:07PM 39.8833 -75.1167 90° East 135 155 3,200 1,080 Climbing Philadelphia TRACON
04:08PM 39.9000 -75.0667 67° East 138 159 4,200 1,080 Climbing Philadelphia TRACON
04:09PM 39.9000 -75.0167 90° East 146 168 5,300 1,020 Climbing Philadelphia TRACON
04:10PM 39.9000 -74.9500 90° East 159 183 6,400 840 Climbing Philadelphia TRACON
04:11PM 39.8500 -74.9875 90° East  Level FlightAware Approximate
04:11PM 39.9167 -74.9167 57° Northeast 164 189 7,000  Level Philadelphia TRACON
04:12PM 39.9500 -74.8500 57° Northeast 220 253 7,100  Climbing Philadelphia TRACON
04:13PM 40.0000 -74.7833 46° Northeast 224 258 7,000  Descending Philadelphia TRACON
04:14PM 40.0500 -74.7167 46° Northeast 229 264 7,100  Climbing New York TRACON
04:15PM 40.0833 -74.6667 49° Northeast 232 267 7,100  Level New York TRACON
04:16PM 40.1333 -74.6000 46° Northeast 236 272 7,100 -60 Level New York TRACON
04:17PM 40.1667 -74.5333 57° Northeast 234 269 7,000 -300 Descending New York TRACON
04:19PM 40.2833 -74.4333 49° Northeast 246 283 6,300 -360 Descending New York TRACON
04:20PM 40.3333 -74.3833 37° Northeast 236 272 6,000 -1,080 Descending New York TRACON
04:22PM 40.4167 -74.3167 25° Northeast 190 219 3,100 -1,020 Descending New York TRACON
04:23PM 40.4667 -74.3000 14° North 175 201 3,000 -60 Descending New York TRACON
04:24PM 40.5167 -74.2833 14° North 177 204 3,000 -180 Level New York TRACON
04:25PM 40.5500 -74.2500 37° Northeast 171 197 2,700 -600 Descending New York TRACON
04:26PM 40.6000 -74.2167 27° Northeast 167 192 1,800 -900 Descending New York TRACON
04:27PM 40.6333 -74.2000 21° North 147 169 1,000 -780 Descending New York TRACON
04:28PM 40.6667 -74.1833 21° North 124 143 300 -720 Descending New York TRACON
04:30PM 40.6833 -74.1667 21° North  Level FlightAware Approximate